createdAt,value
2024-02-28T00:01:52.095Z,2.90
2024-02-28T00:04:19.742Z,3.10
2024-02-28T00:06:49.603Z,3.00
2024-02-28T00:09:17.013Z,2.63
2024-02-28T00:11:48.084Z,2.60
2024-02-28T00:14:14.746Z,2.20
2024-02-28T00:16:42.646Z,2.45
2024-02-28T00:19:09.808Z,3.13
2024-02-28T00:21:36.420Z,2.33
2024-02-28T00:24:03.377Z,2.10
2024-02-28T00:26:31.517Z,2.47
2024-02-28T00:28:58.824Z,2.35
2024-02-28T00:31:25.488Z,2.60
2024-02-28T00:33:52.116Z,1.88
2024-02-28T00:36:20.017Z,2.20
2024-02-28T00:38:46.643Z,3.17
2024-02-28T00:41:13.182Z,2.28
2024-02-28T00:43:39.826Z,2.17
2024-02-28T00:46:09.392Z,2.38
2024-02-28T00:48:36.368Z,2.75
2024-02-28T00:51:03.305Z,1.88
2024-02-28T00:53:29.959Z,1.83
2024-02-28T00:55:56.538Z,2.42
2024-02-28T00:58:23.050Z,2.28
2024-02-28T01:00:49.933Z,2.67
2024-02-28T01:03:16.979Z,2.30
2024-02-28T01:05:44.660Z,2.67
2024-02-28T01:08:11.192Z,2.15
2024-02-28T01:10:39.331Z,2.40
2024-02-28T01:13:05.952Z,3.03
2024-02-28T01:15:32.708Z,2.58
2024-02-28T01:17:59.815Z,1.70
2024-02-28T01:20:26.322Z,1.83
2024-02-28T01:22:53.288Z,1.88
2024-02-28T01:25:19.881Z,1.27
2024-02-28T01:27:46.385Z,2.22
2024-02-28T01:30:13.277Z,1.73
2024-02-28T01:32:40.013Z,1.67
2024-02-28T01:35:09.165Z,1.65
2024-02-28T01:37:35.837Z,1.90
2024-02-28T01:40:02.395Z,1.75
2024-02-28T01:42:28.945Z,1.90
2024-02-28T01:44:55.427Z,2.60
2024-02-28T01:47:22.013Z,2.20
2024-02-28T01:49:49.643Z,1.60
2024-02-28T01:52:16.357Z,2.33
2024-02-28T01:54:43.124Z,1.33
2024-02-28T01:57:10.744Z,2.30
2024-02-28T01:59:38.046Z,2.13
2024-02-28T02:02:04.886Z,1.95
2024-02-28T02:04:31.546Z,2.38
2024-02-28T02:06:59.358Z,1.95
2024-02-28T02:09:27.280Z,1.67
2024-02-28T02:11:53.858Z,1.90
2024-02-28T02:14:20.730Z,2.88
2024-02-28T02:16:47.445Z,2.10
2024-02-28T02:19:14.526Z,2.10
2024-02-28T02:21:53.711Z,2.20
2024-02-28T02:24:20.618Z,1.90
2024-02-28T02:26:47.651Z,1.75
2024-02-28T02:29:14.654Z,1.65
2024-02-28T02:31:41.782Z,1.33
2024-02-28T02:34:08.675Z,1.50
2024-02-28T02:36:35.321Z,2.00
2024-02-28T02:39:01.904Z,1.88
2024-02-28T02:41:28.498Z,1.50
2024-02-28T02:43:55.041Z,1.27
2024-02-28T02:46:21.911Z,2.65
2024-02-28T02:48:48.462Z,2.15
2024-02-28T02:51:15.081Z,1.92
2024-02-28T02:53:41.720Z,1.80
2024-02-28T02:56:08.483Z,1.73
2024-02-28T02:58:35.103Z,1.75
2024-02-28T03:01:01.932Z,1.95
2024-02-28T03:03:28.656Z,1.38
2024-02-28T03:05:55.288Z,1.65
2024-02-28T03:08:21.844Z,1.48
2024-02-28T03:10:48.369Z,1.60
2024-02-28T03:13:14.969Z,1.52
2024-02-28T03:15:41.539Z,1.80
2024-02-28T03:18:08.370Z,1.52
2024-02-28T03:20:35.615Z,1.30
2024-02-28T03:23:02.176Z,1.40
2024-02-28T03:25:29.544Z,1.95
2024-02-28T03:27:56.369Z,1.17
2024-02-28T03:30:22.988Z,1.50
2024-02-28T03:32:49.552Z,1.58
2024-02-28T03:35:16.140Z,1.42
2024-02-28T03:37:42.619Z,1.67
2024-02-28T03:40:09.616Z,1.50
2024-02-28T03:42:36.237Z,1.65
2024-02-28T03:45:03.465Z,1.15
2024-02-28T03:47:30.724Z,1.25
2024-02-28T03:49:58.659Z,1.50
2024-02-28T03:52:25.254Z,1.13
2024-02-28T03:54:51.995Z,1.50
2024-02-28T03:57:18.672Z,1.35
2024-02-28T03:59:45.254Z,1.92
2024-02-28T04:02:12.080Z,1.50
2024-02-28T04:04:38.935Z,1.65
2024-02-28T04:07:05.636Z,1.85
2024-02-28T04:09:32.247Z,1.48
2024-02-28T04:11:58.927Z,1.33
2024-02-28T04:14:25.583Z,1.27
2024-02-28T04:16:52.162Z,1.92
2024-02-28T04:19:18.749Z,1.55
2024-02-28T04:21:45.393Z,1.70
2024-02-28T04:24:13.918Z,1.30
2024-02-28T04:26:41.523Z,1.50
2024-02-28T04:29:13.936Z,1.90
2024-02-28T04:31:40.677Z,1.27
2024-02-28T04:34:07.386Z,1.35
2024-02-28T04:36:34.320Z,1.45
2024-02-28T04:39:02.123Z,1.75
2024-02-28T04:41:29.556Z,1.30
2024-02-28T04:43:56.152Z,1.52
2024-02-28T04:46:22.865Z,1.90
2024-02-28T04:48:49.572Z,1.77
2024-02-28T04:51:18.450Z,1.60
2024-02-28T04:53:45.137Z,1.83
2024-02-28T04:56:11.731Z,1.70
2024-02-28T04:58:38.646Z,1.13
2024-02-28T05:01:05.491Z,1.20
2024-02-28T05:03:32.231Z,1.75
2024-02-28T05:05:58.886Z,1.30
2024-02-28T05:08:26.075Z,1.20
2024-02-28T05:10:52.831Z,1.35
2024-02-28T05:13:20.066Z,1.42
2024-02-28T05:15:46.641Z,1.30
2024-02-28T05:18:13.198Z,1.67
2024-02-28T05:20:39.771Z,1.58
2024-02-28T05:23:06.485Z,1.80
2024-02-28T05:25:33.009Z,1.40
2024-02-28T05:27:59.709Z,1.48
2024-02-28T05:30:26.368Z,1.38
2024-02-28T05:32:52.951Z,1.42
2024-02-28T05:35:19.541Z,2.05
2024-02-28T05:37:47.886Z,1.40
2024-02-28T05:40:14.388Z,1.40
2024-02-28T05:42:41.267Z,1.67
2024-02-28T05:45:08.194Z,1.40
2024-02-28T05:47:34.937Z,1.40
2024-02-28T05:50:02.045Z,1.50
2024-02-28T05:52:28.666Z,1.48
2024-02-28T05:54:55.283Z,1.58
2024-02-28T05:57:21.892Z,1.52
2024-02-28T05:59:48.551Z,1.52
2024-02-28T06:02:15.207Z,2.03
2024-02-28T06:04:41.849Z,2.20
2024-02-28T06:07:08.388Z,1.52
2024-02-28T06:09:35.003Z,1.70
2024-02-28T06:12:03.056Z,1.30
2024-02-28T06:14:29.625Z,1.25
2024-02-28T06:16:56.165Z,2.45
2024-02-28T06:19:22.688Z,1.20
2024-02-28T06:21:49.340Z,1.77
2024-02-28T06:24:15.972Z,1.55
2024-02-28T06:26:45.390Z,1.58
2024-02-28T06:29:13.532Z,1.30
2024-02-28T06:31:40.286Z,2.55
2024-02-28T06:34:07.048Z,2.45
2024-02-28T06:36:33.905Z,1.48
2024-02-28T06:39:00.540Z,1.05
2024-02-28T06:41:27.063Z,1.48
2024-02-28T06:43:53.720Z,1.40
2024-02-28T06:46:20.326Z,1.67
2024-02-28T06:48:46.830Z,2.10
2024-02-28T06:51:15.962Z,1.48
2024-02-28T06:53:43.900Z,1.80
2024-02-28T06:56:10.806Z,2.45
2024-02-28T06:58:37.416Z,1.55
2024-02-28T07:01:05.101Z,1.85
2024-02-28T07:03:31.740Z,1.85
2024-02-28T07:05:58.409Z,3.15
2024-02-28T07:08:24.943Z,1.90
2024-02-28T07:10:54.867Z,2.13
2024-02-28T07:13:21.812Z,1.17
2024-02-28T07:15:50.155Z,1.55
2024-02-28T07:18:17.192Z,1.60
2024-02-28T07:20:43.911Z,1.80
2024-02-28T07:23:10.558Z,1.45
2024-02-28T07:25:37.154Z,2.08
2024-02-28T07:28:04.029Z,2.03
2024-02-28T07:30:30.695Z,1.20
2024-02-28T07:32:57.758Z,1.30
2024-02-28T07:35:25.369Z,1.48
2024-02-28T07:37:51.951Z,1.70
2024-02-28T07:40:21.164Z,1.33
2024-02-28T07:42:47.788Z,1.63
2024-02-28T07:45:14.849Z,1.95
2024-02-28T07:47:41.624Z,1.40
2024-02-28T07:50:08.594Z,1.30
2024-02-28T07:52:36.262Z,1.98
2024-02-28T07:55:03.453Z,1.85
2024-02-28T07:57:30.184Z,1.77
2024-02-28T07:59:57.321Z,1.83
2024-02-28T08:02:24.074Z,1.48
2024-02-28T08:04:51.850Z,1.50
2024-02-28T08:07:18.522Z,1.40
2024-02-28T08:09:45.778Z,0.98
2024-02-28T08:12:12.982Z,1.48
2024-02-28T08:14:39.585Z,1.70
2024-02-28T08:17:06.122Z,1.10
2024-02-28T08:19:32.743Z,1.80
2024-02-28T08:21:59.370Z,2.00
2024-02-28T08:24:25.978Z,1.23
2024-02-28T08:26:52.633Z,1.70
2024-02-28T08:29:19.190Z,1.70
2024-02-28T08:31:46.659Z,1.42
2024-02-28T08:34:13.605Z,1.67
2024-02-28T08:36:40.336Z,1.27
2024-02-28T08:39:06.896Z,1.92
2024-02-28T08:41:36.279Z,1.40
2024-02-28T08:44:02.865Z,1.52
2024-02-28T08:46:29.929Z,1.10
2024-02-28T08:48:56.548Z,1.70
2024-02-28T08:51:23.188Z,1.13
2024-02-28T08:53:49.828Z,1.38
2024-02-28T08:56:17.096Z,1.67
2024-02-28T08:58:45.565Z,1.58
2024-02-28T09:01:18.698Z,1.33
2024-02-28T09:03:45.447Z,1.98
2024-02-28T09:06:12.191Z,1.65
2024-02-28T09:08:38.836Z,1.58
2024-02-28T09:11:06.439Z,1.20
2024-02-28T09:13:33.292Z,1.40
2024-02-28T09:16:00.041Z,1.50
2024-02-28T09:18:26.706Z,1.20
2024-02-28T09:20:53.421Z,1.45
2024-02-28T09:23:20.230Z,1.98
2024-02-28T09:25:46.802Z,1.73
2024-02-28T09:28:14.783Z,1.70
2024-02-28T09:30:46.390Z,1.80
2024-02-28T09:33:20.841Z,1.77
2024-02-28T09:35:47.736Z,1.63
2024-02-28T09:38:14.300Z,1.45
2024-02-28T09:40:41.205Z,1.20
2024-02-28T09:43:20.900Z,0.98
2024-02-28T09:45:49.026Z,1.58
2024-02-28T09:48:18.077Z,1.33
2024-02-28T09:50:46.651Z,1.20
2024-02-28T09:53:13.225Z,1.13
2024-02-28T09:55:39.796Z,1.52
2024-02-28T09:58:06.914Z,1.55
2024-02-28T10:00:35.038Z,1.38
2024-02-28T10:03:02.425Z,1.73
2024-02-28T10:05:30.126Z,1.17
2024-02-28T10:07:56.887Z,1.45
2024-02-28T10:10:24.312Z,2.00
2024-02-28T10:12:51.818Z,1.52
2024-02-28T10:15:18.430Z,2.08
2024-02-28T10:17:45.296Z,2.03
2024-02-28T10:20:12.480Z,1.70
2024-02-28T10:22:40.378Z,1.73
2024-02-28T10:25:07.474Z,2.00
2024-02-28T10:27:35.790Z,2.25
2024-02-28T10:30:05.815Z,2.38
2024-02-28T10:32:35.056Z,2.35
2024-02-28T10:35:02.134Z,2.78
2024-02-28T10:37:34.121Z,2.03
2024-02-28T10:40:02.064Z,1.48
2024-02-28T10:42:31.352Z,2.30
2024-02-28T10:45:10.492Z,1.70
2024-02-28T10:47:47.818Z,2.08
2024-02-28T10:50:16.686Z,1.60
2024-02-28T10:52:48.159Z,1.38
2024-02-28T10:55:15.168Z,1.67
2024-02-28T10:57:42.760Z,1.40
2024-02-28T11:00:10.852Z,1.33
2024-02-28T11:02:40.219Z,1.35
2024-02-28T11:05:07.869Z,1.52
2024-02-28T11:07:35.239Z,1.25
2024-02-28T11:10:07.223Z,1.30
2024-02-28T11:12:33.811Z,1.15
2024-02-28T11:15:01.941Z,1.08
2024-02-28T11:17:32.601Z,1.30
2024-02-28T11:19:59.969Z,1.50
2024-02-28T11:22:30.315Z,1.40
2024-02-28T11:24:57.496Z,1.33
2024-02-28T11:27:25.108Z,1.00
2024-02-28T11:29:52.098Z,0.90
2024-02-28T11:32:18.712Z,1.08
2024-02-28T11:34:46.506Z,1.42
2024-02-28T11:37:13.240Z,1.15
2024-02-28T11:39:39.984Z,0.90
2024-02-28T11:42:11.382Z,1.02
2024-02-28T11:44:38.068Z,1.48
2024-02-28T11:47:04.770Z,0.75
2024-02-28T11:49:34.503Z,1.48
2024-02-28T11:52:01.088Z,1.10
2024-02-28T11:54:28.014Z,1.02
2024-02-28T11:56:57.428Z,1.17
2024-02-28T11:59:24.177Z,1.00
2024-02-28T12:01:52.813Z,1.00
2024-02-28T12:04:19.371Z,1.23
2024-02-28T12:06:46.041Z,1.27
2024-02-28T12:09:21.465Z,0.95
2024-02-28T12:11:54.648Z,1.10
2024-02-28T12:14:21.187Z,0.98
2024-02-28T12:16:49.839Z,1.25
2024-02-28T12:19:17.711Z,0.90
2024-02-28T12:21:44.459Z,0.93
2024-02-28T12:24:12.485Z,1.05
2024-02-28T12:26:39.784Z,0.88
2024-02-28T12:29:06.426Z,0.88
2024-02-28T12:31:33.201Z,0.60
2024-02-28T12:34:00.298Z,0.73
2024-02-28T12:36:27.929Z,0.98
2024-02-28T12:38:54.699Z,1.02
2024-02-28T12:41:21.297Z,0.65
2024-02-28T12:43:47.855Z,0.60
2024-02-28T12:46:14.571Z,0.68
2024-02-28T12:48:45.398Z,0.47
2024-02-28T12:51:34.610Z,0.70
2024-02-28T12:54:01.283Z,0.52
2024-02-28T12:56:27.758Z,0.60
2024-02-28T12:58:54.288Z,0.57
2024-02-28T13:01:21.138Z,0.63
2024-02-28T13:03:49.789Z,0.68
2024-02-28T13:06:16.474Z,0.77
2024-02-28T13:08:43.439Z,0.65
2024-02-28T13:11:10.063Z,0.63
2024-02-28T13:13:37.409Z,0.43
2024-02-28T13:16:04.420Z,0.57
2024-02-28T13:18:31.175Z,1.35
2024-02-28T13:20:57.812Z,0.50
2024-02-28T13:23:24.423Z,0.65
2024-02-28T13:25:50.982Z,0.73
2024-02-28T13:28:17.562Z,0.63
2024-02-28T13:30:44.435Z,0.60
2024-02-28T13:33:10.993Z,0.93
2024-02-28T13:35:39.697Z,1.35
2024-02-28T13:38:06.367Z,0.52
2024-02-28T13:40:33.050Z,0.73
2024-02-28T13:43:00.139Z,0.73
2024-02-28T13:45:26.797Z,0.65
2024-02-28T13:47:53.506Z,0.70
2024-02-28T13:50:20.102Z,0.50
2024-02-28T13:52:49.920Z,0.50
2024-02-28T13:55:16.700Z,0.40
2024-02-28T13:57:43.335Z,0.80
2024-02-28T14:00:12.369Z,0.70
2024-02-28T14:02:39.237Z,0.60
2024-02-28T14:05:07.654Z,0.40
2024-02-28T14:07:34.976Z,0.85
2024-02-28T14:10:01.516Z,0.50
2024-02-28T14:12:28.207Z,0.60
2024-02-28T14:14:54.807Z,0.30
2024-02-28T14:17:21.325Z,0.32
2024-02-28T14:19:49.474Z,0.40
2024-02-28T14:22:16.200Z,0.60
2024-02-28T14:24:42.775Z,0.80
2024-02-28T14:27:10.218Z,0.70
2024-02-28T14:29:37.357Z,0.88
2024-02-28T14:32:04.232Z,0.50
2024-02-28T14:34:32.803Z,0.60
2024-02-28T14:36:59.626Z,0.70
2024-02-28T14:39:26.265Z,0.88
2024-02-28T14:41:52.892Z,0.60
2024-02-28T14:44:19.633Z,0.50
2024-02-28T14:46:46.224Z,0.82
2024-02-28T14:49:12.802Z,0.50
2024-02-28T14:51:40.563Z,0.50
2024-02-28T14:54:08.069Z,0.50
2024-02-28T14:56:34.653Z,0.32
2024-02-28T14:59:01.177Z,0.63
2024-02-28T15:01:28.213Z,0.40
2024-02-28T15:03:55.143Z,0.35
2024-02-28T15:06:22.051Z,0.30
2024-02-28T15:08:50.148Z,0.60
2024-02-28T15:11:17.394Z,0.50
2024-02-28T15:13:43.983Z,0.52
2024-02-28T15:16:10.824Z,0.35
2024-02-28T15:18:37.931Z,0.40
2024-02-28T15:21:05.157Z,0.40
2024-02-28T15:23:32.438Z,0.50
2024-02-28T15:26:00.246Z,0.50
2024-02-28T15:28:28.341Z,0.55
2024-02-28T15:30:56.299Z,0.65
2024-02-28T15:33:23.769Z,0.60
2024-02-28T15:35:50.471Z,0.32
2024-02-28T15:38:17.122Z,0.40
2024-02-28T15:40:43.727Z,0.50
2024-02-28T15:43:10.789Z,0.55
2024-02-28T15:45:40.444Z,0.28
2024-02-28T15:48:07.659Z,0.50
2024-02-28T15:50:34.272Z,0.40
2024-02-28T15:53:00.891Z,0.47
2024-02-28T15:55:27.458Z,0.43
2024-02-28T15:57:56.474Z,0.38
2024-02-28T16:00:23.817Z,0.50
2024-02-28T16:02:50.440Z,0.22
2024-02-28T16:05:17.478Z,0.45
2024-02-28T16:07:45.151Z,0.57
2024-02-28T16:10:12.273Z,0.40
2024-02-28T16:12:38.972Z,0.35
2024-02-28T16:15:09.076Z,0.70
2024-02-28T16:17:35.807Z,0.60
2024-02-28T16:20:03.760Z,0.50
2024-02-28T16:22:30.802Z,0.80
2024-02-28T16:24:57.490Z,0.73
2024-02-28T16:27:24.203Z,0.55
2024-02-28T16:29:51.890Z,0.43
2024-02-28T16:32:18.573Z,0.35
2024-02-28T16:34:45.157Z,0.63
2024-02-28T16:37:11.899Z,0.40
2024-02-28T16:39:38.503Z,0.60
2024-02-28T16:42:05.254Z,0.68
2024-02-28T16:44:31.943Z,0.50
2024-02-28T16:46:58.503Z,0.20
2024-02-28T16:49:25.124Z,0.80
2024-02-28T16:51:51.779Z,0.40
2024-02-28T16:54:20.579Z,0.40
2024-02-28T16:56:47.820Z,0.50
2024-02-28T16:59:15.643Z,0.52
2024-02-28T17:01:42.697Z,0.32
2024-02-28T17:04:09.483Z,3.17
2024-02-28T17:06:36.057Z,0.52
2024-02-28T17:09:02.616Z,0.30
2024-02-28T17:11:29.396Z,0.50
2024-02-28T17:13:56.068Z,0.45
2024-02-28T17:16:22.687Z,0.32
2024-02-28T17:18:49.283Z,0.22
2024-02-28T17:21:16.645Z,0.57
2024-02-28T17:23:43.502Z,0.55
2024-02-28T17:26:11.016Z,0.40
2024-02-28T17:28:37.667Z,0.60
2024-02-28T17:31:04.630Z,0.77
2024-02-28T17:33:31.315Z,1.00
2024-02-28T17:35:57.979Z,0.30
2024-02-28T17:38:24.561Z,0.50
2024-02-28T17:40:51.451Z,1.05
2024-02-28T17:43:20.403Z,0.57
2024-02-28T17:45:47.291Z,0.60
2024-02-28T17:48:14.002Z,0.82
2024-02-28T17:50:40.973Z,0.60
2024-02-28T17:53:07.522Z,0.50
2024-02-28T17:55:34.166Z,0.70
2024-02-28T17:58:01.045Z,0.50
2024-02-28T18:00:28.081Z,0.70
2024-02-28T18:02:55.091Z,1.27
2024-02-28T18:05:24.526Z,1.25
2024-02-28T18:07:54.250Z,0.80
2024-02-28T18:10:21.350Z,0.88
2024-02-28T18:12:48.455Z,1.05
2024-02-28T18:15:15.081Z,1.30
2024-02-28T18:17:41.734Z,0.80
2024-02-28T18:20:09.041Z,0.90
2024-02-28T18:22:36.457Z,0.95
2024-02-28T18:25:04.348Z,1.08
2024-02-28T18:27:31.137Z,1.00
2024-02-28T18:29:57.917Z,1.45
2024-02-28T18:32:24.802Z,1.50
2024-02-28T18:34:53.443Z,1.70
2024-02-28T18:37:20.278Z,1.60
2024-02-28T18:39:46.941Z,1.23
2024-02-28T18:42:13.531Z,1.23
2024-02-28T18:44:40.247Z,1.33
2024-02-28T18:47:06.936Z,1.88
2024-02-28T18:49:33.935Z,1.55
2024-02-28T18:52:01.293Z,1.63
2024-02-28T18:54:28.182Z,2.40
2024-02-28T18:56:55.616Z,2.80
2024-02-28T18:59:22.251Z,2.67
2024-02-28T19:01:50.895Z,1.50
2024-02-28T19:04:17.920Z,2.03
2024-02-28T19:06:46.077Z,1.92
2024-02-28T19:09:12.755Z,1.90
2024-02-28T19:11:39.504Z,1.63
2024-02-28T19:14:06.424Z,1.95
2024-02-28T19:16:33.054Z,1.60
2024-02-28T19:18:59.737Z,1.55
2024-02-28T19:21:26.365Z,1.38
2024-02-28T19:23:53.288Z,1.85
2024-02-28T19:26:20.002Z,1.92
2024-02-28T19:28:46.743Z,1.48
2024-02-28T19:31:14.724Z,1.60
2024-02-28T19:33:41.425Z,1.60
2024-02-28T19:36:08.598Z,1.50
2024-02-28T19:38:35.219Z,1.75
2024-02-28T19:41:01.788Z,1.52
2024-02-28T19:43:28.426Z,1.80
2024-02-28T19:45:54.973Z,1.75
2024-02-28T19:48:22.346Z,1.83
2024-02-28T19:50:49.189Z,1.55
2024-02-28T19:53:15.778Z,1.67
2024-02-28T19:55:42.348Z,2.00
2024-02-28T19:58:09.303Z,1.92
2024-02-28T20:00:36.704Z,2.58
2024-02-28T20:03:04.435Z,2.20
2024-02-28T20:05:31.101Z,2.63
2024-02-28T20:07:57.620Z,2.67
2024-02-28T20:10:25.234Z,2.20
2024-02-28T20:12:51.881Z,2.05
2024-02-28T20:15:19.836Z,2.85
2024-02-28T20:17:46.524Z,3.00
2024-02-28T20:20:13.206Z,3.08
2024-02-28T20:22:40.838Z,2.05
2024-02-28T20:25:08.034Z,2.42
2024-02-28T20:27:34.670Z,2.45
2024-02-28T20:30:01.248Z,2.28
2024-02-28T20:32:28.297Z,2.35
2024-02-28T20:34:54.993Z,2.50
2024-02-28T20:37:22.953Z,2.70
2024-02-28T20:39:50.220Z,2.17
2024-02-28T20:42:17.031Z,2.38
2024-02-28T20:44:43.709Z,2.45
2024-02-28T20:47:10.807Z,2.40
2024-02-28T20:49:37.764Z,1.50
2024-02-28T20:52:05.226Z,1.90
2024-02-28T20:54:32.261Z,2.42
2024-02-28T20:57:06.005Z,2.13
2024-02-28T20:59:39.160Z,2.28
2024-02-28T21:02:06.099Z,2.08
2024-02-28T21:04:34.765Z,2.47
2024-02-28T21:07:01.338Z,1.75
2024-02-28T21:09:27.936Z,1.65
2024-02-28T21:12:05.091Z,1.95
2024-02-28T21:14:35.693Z,2.20
2024-02-28T21:17:02.515Z,1.85
2024-02-28T21:19:30.437Z,2.28
2024-02-28T21:21:57.299Z,1.60
2024-02-28T21:24:24.137Z,1.90
2024-02-28T21:26:50.812Z,1.80
2024-02-28T21:29:18.657Z,1.60
2024-02-28T21:31:45.224Z,1.83
2024-02-28T21:34:11.746Z,1.90
2024-02-28T21:36:38.369Z,2.50
2024-02-28T21:39:09.835Z,1.88
2024-02-28T21:41:36.566Z,2.20
2024-02-28T21:44:03.321Z,2.03
2024-02-28T21:46:29.914Z,1.65
2024-02-28T21:49:02.997Z,2.15
2024-02-28T21:51:36.375Z,2.38
2024-02-28T21:54:02.973Z,2.60
2024-02-28T21:56:29.512Z,3.58
2024-02-28T21:58:56.920Z,4.68
2024-02-28T22:01:23.681Z,4.70
2024-02-28T22:03:51.583Z,5.55
2024-02-28T22:06:18.167Z,5.35
2024-02-28T22:08:44.822Z,4.72
2024-02-28T22:11:11.469Z,3.65
2024-02-28T22:13:38.148Z,4.68
2024-02-28T22:16:05.137Z,4.40
2024-02-28T22:18:31.826Z,3.92
2024-02-28T22:20:58.476Z,4.22
2024-02-28T22:23:25.710Z,4.22
2024-02-28T22:25:52.275Z,4.53
2024-02-28T22:28:19.465Z,4.20
2024-02-28T22:30:46.557Z,3.40
2024-02-28T22:33:13.628Z,3.78
2024-02-28T22:35:41.211Z,3.60
2024-02-28T22:38:08.286Z,3.00
2024-02-28T22:40:35.377Z,3.75
2024-02-28T22:43:02.444Z,3.45
2024-02-28T22:45:29.137Z,3.25
2024-02-28T22:47:56.002Z,3.42
2024-02-28T22:50:22.810Z,3.28
2024-02-28T22:52:49.557Z,4.03
2024-02-28T22:55:20.952Z,3.63
2024-02-28T22:57:48.231Z,3.42
2024-02-28T23:00:31.477Z,3.45
2024-02-28T23:03:00.311Z,3.30
2024-02-28T23:05:27.919Z,3.53
2024-02-28T23:07:56.023Z,3.55
2024-02-28T23:10:23.565Z,3.08
2024-02-28T23:12:55.451Z,3.20
2024-02-28T23:15:23.892Z,3.25
2024-02-28T23:17:55.811Z,3.33
2024-02-28T23:20:27.439Z,3.20
2024-02-28T23:22:55.810Z,3.63
2024-02-28T23:25:23.295Z,3.05
2024-02-28T23:27:51.343Z,3.15
2024-02-28T23:30:18.585Z,2.58
2024-02-28T23:32:45.253Z,3.35
2024-02-28T23:35:11.975Z,3.47
2024-02-28T23:37:39.744Z,2.17
2024-02-28T23:40:09.102Z,2.35
2024-02-28T23:42:36.317Z,2.42
2024-02-28T23:45:03.251Z,2.40
2024-02-28T23:47:30.081Z,2.13
2024-02-28T23:49:56.752Z,2.20
2024-02-28T23:52:23.523Z,2.38
2024-02-28T23:54:50.319Z,2.25
2024-02-28T23:57:16.905Z,2.13
2024-02-28T23:59:43.833Z,2.45
